sensor_id;sensor_type;location;lat;lon;timestamp;temperature;humidity
35531;DHT22;21637;53.352;-6.356;2024-02-21T00:00:47;6.90;99.90
35531;DHT22;21637;53.352;-6.356;2024-02-21T00:03:12;7.00;99.90
35531;DHT22;21637;53.352;-6.356;2024-02-21T00:05:38;7.00;99.90
35531;DHT22;21637;53.352;-6.356;2024-02-21T00:08:04;7.20;99.90
35531;DHT22;21637;53.352;-6.356;2024-02-21T00:10:30;7.40;99.90
35531;DHT22;21637;53.352;-6.356;2024-02-21T00:12:58;7.50;99.90
35531;DHT22;21637;53.352;-6.356;2024-02-21T00:15:25;7.60;99.90
35531;DHT22;21637;53.352;-6.356;2024-02-21T00:17:51;7.70;99.90
35531;DHT22;21637;53.352;-6.356;2024-02-21T00:20:17;7.90;99.90
35531;DHT22;21637;53.352;-6.356;2024-02-21T00:22:43;7.90;99.90
35531;DHT22;21637;53.352;-6.356;2024-02-21T00:25:10;8.00;99.90
35531;DHT22;21637;53.352;-6.356;2024-02-21T00:27:35;8.10;99.90
35531;DHT22;21637;53.352;-6.356;2024-02-21T00:30:02;8.20;99.90
35531;DHT22;21637;53.352;-6.356;2024-02-21T00:32:27;8.30;99.90
35531;DHT22;21637;53.352;-6.356;2024-02-21T00:34:53;8.50;99.90
35531;DHT22;21637;53.352;-6.356;2024-02-21T00:37:19;8.60;99.90
35531;DHT22;21637;53.352;-6.356;2024-02-21T00:39:45;8.70;99.90
35531;DHT22;21637;53.352;-6.356;2024-02-21T00:42:11;8.70;99.90
35531;DHT22;21637;53.352;-6.356;2024-02-21T00:44:36;8.80;99.90
35531;DHT22;21637;53.352;-6.356;2024-02-21T00:47:02;8.90;99.90
35531;DHT22;21637;53.352;-6.356;2024-02-21T00:49:28;8.90;99.90
35531;DHT22;21637;53.352;-6.356;2024-02-21T00:51:53;9.00;99.90
35531;DHT22;21637;53.352;-6.356;2024-02-21T00:54:19;9.00;99.90
35531;DHT22;21637;53.352;-6.356;2024-02-21T00:56:45;9.10;99.90
35531;DHT22;21637;53.352;-6.356;2024-02-21T00:59:11;9.10;99.90
35531;DHT22;21637;53.352;-6.356;2024-02-21T01:01:36;9.10;99.90
35531;DHT22;21637;53.352;-6.356;2024-02-21T01:04:02;9.10;99.90
35531;DHT22;21637;53.352;-6.356;2024-02-21T01:06:28;9.20;99.90
35531;DHT22;21637;53.352;-6.356;2024-02-21T01:08:54;9.20;99.90
35531;DHT22;21637;53.352;-6.356;2024-02-21T01:11:19;9.20;99.90
35531;DHT22;21637;53.352;-6.356;2024-02-21T01:13:45;9.20;99.90
35531;DHT22;21637;53.352;-6.356;2024-02-21T01:16:11;9.20;99.90
35531;DHT22;21637;53.352;-6.356;2024-02-21T01:18:39;9.20;99.90
35531;DHT22;21637;53.352;-6.356;2024-02-21T01:21:06;9.30;99.90
35531;DHT22;21637;53.352;-6.356;2024-02-21T01:23:34;9.20;99.90
35531;DHT22;21637;53.352;-6.356;2024-02-21T01:26:00;9.30;99.90
35531;DHT22;21637;53.352;-6.356;2024-02-21T01:28:25;9.30;99.90
35531;DHT22;21637;53.352;-6.356;2024-02-21T01:30:51;9.30;99.90
35531;DHT22;21637;53.352;-6.356;2024-02-21T01:33:17;9.30;99.90
35531;DHT22;21637;53.352;-6.356;2024-02-21T01:35:43;9.40;99.90
35531;DHT22;21637;53.352;-6.356;2024-02-21T01:38:09;9.30;99.90
35531;DHT22;21637;53.352;-6.356;2024-02-21T01:40:34;9.30;99.90
35531;DHT22;21637;53.352;-6.356;2024-02-21T01:43:00;9.30;99.90
35531;DHT22;21637;53.352;-6.356;2024-02-21T01:45:26;9.30;99.90
35531;DHT22;21637;53.352;-6.356;2024-02-21T01:47:52;9.40;99.90
35531;DHT22;21637;53.352;-6.356;2024-02-21T01:50:17;9.40;99.90
35531;DHT22;21637;53.352;-6.356;2024-02-21T01:52:45;9.30;99.90
35531;DHT22;21637;53.352;-6.356;2024-02-21T01:55:13;9.30;99.90
35531;DHT22;21637;53.352;-6.356;2024-02-21T01:57:41;9.30;99.90
35531;DHT22;21637;53.352;-6.356;2024-02-21T02:00:09;9.30;99.90
35531;DHT22;21637;53.352;-6.356;2024-02-21T02:02:36;9.30;99.90
35531;DHT22;21637;53.352;-6.356;2024-02-21T02:05:04;9.30;99.90
35531;DHT22;21637;53.352;-6.356;2024-02-21T02:07:31;9.30;99.90
35531;DHT22;21637;53.352;-6.356;2024-02-21T02:09:57;9.30;99.90
35531;DHT22;21637;53.352;-6.356;2024-02-21T02:12:23;9.30;99.90
35531;DHT22;21637;53.352;-6.356;2024-02-21T02:15:03;9.30;99.90
35531;DHT22;21637;53.352;-6.356;2024-02-21T02:17:31;9.30;99.90
35531;DHT22;21637;53.352;-6.356;2024-02-21T02:19:57;9.40;99.90
35531;DHT22;21637;53.352;-6.356;2024-02-21T02:22:28;9.40;99.90
35531;DHT22;21637;53.352;-6.356;2024-02-21T02:24:55;9.40;99.90
35531;DHT22;21637;53.352;-6.356;2024-02-21T02:27:21;9.40;99.90
35531;DHT22;21637;53.352;-6.356;2024-02-21T02:29:48;9.50;99.90
35531;DHT22;21637;53.352;-6.356;2024-02-21T02:32:14;9.50;99.90
35531;DHT22;21637;53.352;-6.356;2024-02-21T02:34:40;9.50;99.90
35531;DHT22;21637;53.352;-6.356;2024-02-21T02:37:06;9.50;99.90
35531;DHT22;21637;53.352;-6.356;2024-02-21T02:39:32;9.50;99.90
35531;DHT22;21637;53.352;-6.356;2024-02-21T02:41:57;9.50;99.90
35531;DHT22;21637;53.352;-6.356;2024-02-21T02:44:23;9.50;99.90
35531;DHT22;21637;53.352;-6.356;2024-02-21T02:46:49;9.50;99.90
35531;DHT22;21637;53.352;-6.356;2024-02-21T02:49:15;9.50;99.90
35531;DHT22;21637;53.352;-6.356;2024-02-21T02:51:44;9.50;99.90
35531;DHT22;21637;53.352;-6.356;2024-02-21T02:54:10;9.50;99.90
35531;DHT22;21637;53.352;-6.356;2024-02-21T02:56:36;9.50;99.90
35531;DHT22;21637;53.352;-6.356;2024-02-21T02:59:02;9.50;99.90
35531;DHT22;21637;53.352;-6.356;2024-02-21T03:01:28;9.40;99.90
35531;DHT22;21637;53.352;-6.356;2024-02-21T03:03:54;9.40;99.90
35531;DHT22;21637;53.352;-6.356;2024-02-21T03:06:20;9.40;99.90
35531;DHT22;21637;53.352;-6.356;2024-02-21T03:08:46;9.30;99.90
35531;DHT22;21637;53.352;-6.356;2024-02-21T03:11:11;9.30;99.90
35531;DHT22;21637;53.352;-6.356;2024-02-21T03:13:37;9.30;99.90
35531;DHT22;21637;53.352;-6.356;2024-02-21T03:16:03;9.30;99.90
35531;DHT22;21637;53.352;-6.356;2024-02-21T03:18:29;9.20;99.90
35531;DHT22;21637;53.352;-6.356;2024-02-21T03:20:55;9.20;99.90
35531;DHT22;21637;53.352;-6.356;2024-02-21T03:23:21;9.10;99.90
35531;DHT22;21637;53.352;-6.356;2024-02-21T03:25:46;9.10;99.90
35531;DHT22;21637;53.352;-6.356;2024-02-21T03:28:12;9.10;99.90
35531;DHT22;21637;53.352;-6.356;2024-02-21T03:30:38;9.10;99.90
35531;DHT22;21637;53.352;-6.356;2024-02-21T03:33:04;9.10;99.90
35531;DHT22;21637;53.352;-6.356;2024-02-21T03:35:30;9.10;99.90
35531;DHT22;21637;53.352;-6.356;2024-02-21T03:37:56;9.20;99.90
35531;DHT22;21637;53.352;-6.356;2024-02-21T03:40:21;9.30;99.90
35531;DHT22;21637;53.352;-6.356;2024-02-21T03:42:47;9.30;99.90
35531;DHT22;21637;53.352;-6.356;2024-02-21T03:45:13;9.30;99.90
35531;DHT22;21637;53.352;-6.356;2024-02-21T03:47:39;9.40;99.90
35531;DHT22;21637;53.352;-6.356;2024-02-21T03:50:06;9.50;99.90
35531;DHT22;21637;53.352;-6.356;2024-02-21T03:52:31;9.50;99.90
35531;DHT22;21637;53.352;-6.356;2024-02-21T03:54:57;9.50;99.90
35531;DHT22;21637;53.352;-6.356;2024-02-21T03:57:23;9.60;99.90
35531;DHT22;21637;53.352;-6.356;2024-02-21T03:59:52;9.50;99.90
35531;DHT22;21637;53.352;-6.356;2024-02-21T04:02:17;9.60;99.90
35531;DHT22;21637;53.352;-6.356;2024-02-21T04:04:44;9.50;99.90
35531;DHT22;21637;53.352;-6.356;2024-02-21T04:07:14;9.50;99.90
35531;DHT22;21637;53.352;-6.356;2024-02-21T04:09:40;9.50;99.90
35531;DHT22;21637;53.352;-6.356;2024-02-21T04:12:07;9.50;99.90
35531;DHT22;21637;53.352;-6.356;2024-02-21T04:14:33;9.60;99.90
35531;DHT22;21637;53.352;-6.356;2024-02-21T04:17:00;9.50;99.90
35531;DHT22;21637;53.352;-6.356;2024-02-21T04:19:26;9.40;99.90
35531;DHT22;21637;53.352;-6.356;2024-02-21T04:21:52;9.50;99.90
35531;DHT22;21637;53.352;-6.356;2024-02-21T04:24:17;9.40;99.90
35531;DHT22;21637;53.352;-6.356;2024-02-21T04:26:43;9.50;99.90
35531;DHT22;21637;53.352;-6.356;2024-02-21T04:29:09;9.50;99.90
35531;DHT22;21637;53.352;-6.356;2024-02-21T04:31:35;9.50;99.90
35531;DHT22;21637;53.352;-6.356;2024-02-21T04:34:01;9.40;99.90
35531;DHT22;21637;53.352;-6.356;2024-02-21T04:36:28;9.50;99.90
35531;DHT22;21637;53.352;-6.356;2024-02-21T04:38:54;9.50;99.90
35531;DHT22;21637;53.352;-6.356;2024-02-21T04:41:19;9.60;99.90
35531;DHT22;21637;53.352;-6.356;2024-02-21T04:43:48;9.50;99.90
35531;DHT22;21637;53.352;-6.356;2024-02-21T04:46:14;9.50;99.90
35531;DHT22;21637;53.352;-6.356;2024-02-21T04:48:41;9.50;99.90
35531;DHT22;21637;53.352;-6.356;2024-02-21T04:51:08;9.60;99.90
35531;DHT22;21637;53.352;-6.356;2024-02-21T04:53:33;9.60;99.90
35531;DHT22;21637;53.352;-6.356;2024-02-21T04:55:59;9.50;99.90
35531;DHT22;21637;53.352;-6.356;2024-02-21T04:58:25;9.50;99.90
35531;DHT22;21637;53.352;-6.356;2024-02-21T05:00:51;9.60;99.90
35531;DHT22;21637;53.352;-6.356;2024-02-21T05:03:17;9.60;99.90
35531;DHT22;21637;53.352;-6.356;2024-02-21T05:05:42;9.70;99.90
35531;DHT22;21637;53.352;-6.356;2024-02-21T05:08:09;9.70;99.90
35531;DHT22;21637;53.352;-6.356;2024-02-21T05:10:35;10.00;99.90
35531;DHT22;21637;53.352;-6.356;2024-02-21T05:13:01;10.30;99.90
35531;DHT22;21637;53.352;-6.356;2024-02-21T05:15:27;10.40;99.90
35531;DHT22;21637;53.352;-6.356;2024-02-21T05:17:53;10.40;99.90
35531;DHT22;21637;53.352;-6.356;2024-02-21T05:20:18;10.70;99.90
35531;DHT22;21637;53.352;-6.356;2024-02-21T05:22:44;10.70;99.90
35531;DHT22;21637;53.352;-6.356;2024-02-21T05:25:10;10.80;99.90
35531;DHT22;21637;53.352;-6.356;2024-02-21T05:27:36;10.80;99.90
35531;DHT22;21637;53.352;-6.356;2024-02-21T05:30:03;10.90;99.90
35531;DHT22;21637;53.352;-6.356;2024-02-21T05:32:29;10.90;99.90
35531;DHT22;21637;53.352;-6.356;2024-02-21T05:34:55;10.90;99.90
35531;DHT22;21637;53.352;-6.356;2024-02-21T05:37:20;11.00;99.90
35531;DHT22;21637;53.352;-6.356;2024-02-21T05:39:46;11.10;99.90
35531;DHT22;21637;53.352;-6.356;2024-02-21T05:42:12;11.10;99.90
35531;DHT22;21637;53.352;-6.356;2024-02-21T05:44:38;11.10;99.90
35531;DHT22;21637;53.352;-6.356;2024-02-21T05:47:04;11.20;99.90
35531;DHT22;21637;53.352;-6.356;2024-02-21T05:49:29;11.10;99.90
35531;DHT22;21637;53.352;-6.356;2024-02-21T05:51:55;11.10;99.90
35531;DHT22;21637;53.352;-6.356;2024-02-21T05:54:21;11.30;99.90
35531;DHT22;21637;53.352;-6.356;2024-02-21T05:56:46;11.30;99.90
35531;DHT22;21637;53.352;-6.356;2024-02-21T05:59:12;11.30;99.90
35531;DHT22;21637;53.352;-6.356;2024-02-21T06:01:38;11.30;99.90
35531;DHT22;21637;53.352;-6.356;2024-02-21T06:04:04;11.40;99.90
35531;DHT22;21637;53.352;-6.356;2024-02-21T06:06:30;11.40;99.90
35531;DHT22;21637;53.352;-6.356;2024-02-21T06:08:56;11.30;99.90
35531;DHT22;21637;53.352;-6.356;2024-02-21T06:11:22;11.40;99.90
35531;DHT22;21637;53.352;-6.356;2024-02-21T06:13:48;11.50;99.90
35531;DHT22;21637;53.352;-6.356;2024-02-21T06:16:14;11.50;99.90
35531;DHT22;21637;53.352;-6.356;2024-02-21T06:18:39;11.50;99.90
35531;DHT22;21637;53.352;-6.356;2024-02-21T06:21:05;11.50;99.90
35531;DHT22;21637;53.352;-6.356;2024-02-21T06:23:31;11.60;99.90
35531;DHT22;21637;53.352;-6.356;2024-02-21T06:25:57;11.60;99.90
35531;DHT22;21637;53.352;-6.356;2024-02-21T06:28:22;11.60;99.90
35531;DHT22;21637;53.352;-6.356;2024-02-21T06:30:48;11.60;99.90
35531;DHT22;21637;53.352;-6.356;2024-02-21T06:33:14;11.60;99.90
35531;DHT22;21637;53.352;-6.356;2024-02-21T06:35:39;11.60;99.90
35531;DHT22;21637;53.352;-6.356;2024-02-21T06:38:07;11.60;99.90
35531;DHT22;21637;53.352;-6.356;2024-02-21T06:40:33;11.60;99.90
35531;DHT22;21637;53.352;-6.356;2024-02-21T06:43:04;11.60;99.90
35531;DHT22;21637;53.352;-6.356;2024-02-21T06:45:30;11.60;99.90
35531;DHT22;21637;53.352;-6.356;2024-02-21T06:47:56;11.60;99.90
35531;DHT22;21637;53.352;-6.356;2024-02-21T06:50:21;11.70;99.90
35531;DHT22;21637;53.352;-6.356;2024-02-21T06:52:47;11.70;99.90
35531;DHT22;21637;53.352;-6.356;2024-02-21T06:55:13;11.70;99.90
35531;DHT22;21637;53.352;-6.356;2024-02-21T06:57:39;11.80;99.90
35531;DHT22;21637;53.352;-6.356;2024-02-21T07:00:05;11.80;99.90
35531;DHT22;21637;53.352;-6.356;2024-02-21T07:02:33;11.80;99.90
35531;DHT22;21637;53.352;-6.356;2024-02-21T07:04:59;11.80;99.90
35531;DHT22;21637;53.352;-6.356;2024-02-21T07:07:25;11.90;99.90
35531;DHT22;21637;53.352;-6.356;2024-02-21T07:09:51;11.90;99.90
35531;DHT22;21637;53.352;-6.356;2024-02-21T07:12:18;11.90;99.90
35531;DHT22;21637;53.352;-6.356;2024-02-21T07:14:44;11.80;99.90
35531;DHT22;21637;53.352;-6.356;2024-02-21T07:17:10;11.80;99.90
35531;DHT22;21637;53.352;-6.356;2024-02-21T07:19:36;11.90;99.90
35531;DHT22;21637;53.352;-6.356;2024-02-21T07:22:02;11.90;99.90
35531;DHT22;21637;53.352;-6.356;2024-02-21T07:24:28;11.90;99.90
35531;DHT22;21637;53.352;-6.356;2024-02-21T07:26:54;11.90;99.90
35531;DHT22;21637;53.352;-6.356;2024-02-21T07:29:20;11.90;99.90
35531;DHT22;21637;53.352;-6.356;2024-02-21T07:31:45;11.90;99.90
35531;DHT22;21637;53.352;-6.356;2024-02-21T07:34:14;11.90;99.90
35531;DHT22;21637;53.352;-6.356;2024-02-21T07:36:40;11.90;99.90
35531;DHT22;21637;53.352;-6.356;2024-02-21T07:39:08;11.90;99.90
35531;DHT22;21637;53.352;-6.356;2024-02-21T07:41:33;11.90;99.90
35531;DHT22;21637;53.352;-6.356;2024-02-21T07:44:00;11.90;99.90
35531;DHT22;21637;53.352;-6.356;2024-02-21T07:46:26;11.90;99.90
35531;DHT22;21637;53.352;-6.356;2024-02-21T07:48:51;11.90;99.90
35531;DHT22;21637;53.352;-6.356;2024-02-21T07:51:17;11.90;99.90
35531;DHT22;21637;53.352;-6.356;2024-02-21T07:53:44;11.90;99.90
35531;DHT22;21637;53.352;-6.356;2024-02-21T07:56:15;11.90;99.90
35531;DHT22;21637;53.352;-6.356;2024-02-21T07:58:43;11.90;99.90
35531;DHT22;21637;53.352;-6.356;2024-02-21T08:01:10;11.80;99.90
35531;DHT22;21637;53.352;-6.356;2024-02-21T08:03:35;11.90;99.90
35531;DHT22;21637;53.352;-6.356;2024-02-21T08:06:03;11.90;99.90
35531;DHT22;21637;53.352;-6.356;2024-02-21T08:08:28;11.90;99.90
35531;DHT22;21637;53.352;-6.356;2024-02-21T08:10:54;11.90;99.90
35531;DHT22;21637;53.352;-6.356;2024-02-21T08:13:20;11.90;99.90
35531;DHT22;21637;53.352;-6.356;2024-02-21T08:15:46;11.90;99.90
35531;DHT22;21637;53.352;-6.356;2024-02-21T08:18:12;11.90;99.90
35531;DHT22;21637;53.352;-6.356;2024-02-21T08:20:37;11.90;99.90
35531;DHT22;21637;53.352;-6.356;2024-02-21T08:23:03;12.00;99.90
35531;DHT22;21637;53.352;-6.356;2024-02-21T08:25:29;12.00;99.90
35531;DHT22;21637;53.352;-6.356;2024-02-21T08:27:58;12.00;99.90
35531;DHT22;21637;53.352;-6.356;2024-02-21T08:30:24;12.10;99.90
35531;DHT22;21637;53.352;-6.356;2024-02-21T08:32:50;12.00;99.90
35531;DHT22;21637;53.352;-6.356;2024-02-21T08:35:15;12.00;99.90
35531;DHT22;21637;53.352;-6.356;2024-02-21T08:37:44;12.10;99.90
35531;DHT22;21637;53.352;-6.356;2024-02-21T08:40:10;12.10;99.90
35531;DHT22;21637;53.352;-6.356;2024-02-21T08:42:36;12.20;99.90
35531;DHT22;21637;53.352;-6.356;2024-02-21T08:45:03;12.20;99.90
35531;DHT22;21637;53.352;-6.356;2024-02-21T08:47:29;12.20;99.90
35531;DHT22;21637;53.352;-6.356;2024-02-21T08:49:54;12.30;99.90
35531;DHT22;21637;53.352;-6.356;2024-02-21T08:52:20;12.30;99.90
35531;DHT22;21637;53.352;-6.356;2024-02-21T08:54:46;12.40;99.90
35531;DHT22;21637;53.352;-6.356;2024-02-21T08:57:11;12.40;99.90
35531;DHT22;21637;53.352;-6.356;2024-02-21T08:59:39;12.50;99.90
35531;DHT22;21637;53.352;-6.356;2024-02-21T09:02:05;12.50;99.90
35531;DHT22;21637;53.352;-6.356;2024-02-21T09:04:32;12.50;99.90
35531;DHT22;21637;53.352;-6.356;2024-02-21T09:06:59;12.60;99.90
35531;DHT22;21637;53.352;-6.356;2024-02-21T09:09:25;12.60;99.90
35531;DHT22;21637;53.352;-6.356;2024-02-21T09:11:50;12.60;99.90
35531;DHT22;21637;53.352;-6.356;2024-02-21T09:14:17;12.70;99.90
35531;DHT22;21637;53.352;-6.356;2024-02-21T09:16:42;12.80;99.90
35531;DHT22;21637;53.352;-6.356;2024-02-21T09:19:09;12.80;99.90
35531;DHT22;21637;53.352;-6.356;2024-02-21T09:21:37;12.80;99.90
35531;DHT22;21637;53.352;-6.356;2024-02-21T09:24:03;12.80;99.90
35531;DHT22;21637;53.352;-6.356;2024-02-21T09:26:29;12.80;99.90
35531;DHT22;21637;53.352;-6.356;2024-02-21T09:28:55;12.80;99.90
35531;DHT22;21637;53.352;-6.356;2024-02-21T09:31:21;12.90;99.90
35531;DHT22;21637;53.352;-6.356;2024-02-21T09:33:46;12.90;99.90
35531;DHT22;21637;53.352;-6.356;2024-02-21T09:36:12;13.00;99.90
35531;DHT22;21637;53.352;-6.356;2024-02-21T09:38:40;13.10;99.90
35531;DHT22;21637;53.352;-6.356;2024-02-21T09:41:16;13.20;99.90
35531;DHT22;21637;53.352;-6.356;2024-02-21T09:43:45;13.40;99.90
35531;DHT22;21637;53.352;-6.356;2024-02-21T09:46:18;13.50;99.90
35531;DHT22;21637;53.352;-6.356;2024-02-21T09:52:09;13.60;99.90
35531;DHT22;21637;53.352;-6.356;2024-02-21T09:54:38;13.60;99.90
35531;DHT22;21637;53.352;-6.356;2024-02-21T09:57:06;13.60;99.90
35531;DHT22;21637;53.352;-6.356;2024-02-21T09:59:32;13.70;99.90
35531;DHT22;21637;53.352;-6.356;2024-02-21T10:01:58;13.80;99.90
35531;DHT22;21637;53.352;-6.356;2024-02-21T10:04:28;13.80;99.90
35531;DHT22;21637;53.352;-6.356;2024-02-21T10:06:54;13.80;99.90
35531;DHT22;21637;53.352;-6.356;2024-02-21T10:09:29;13.70;99.90
35531;DHT22;21637;53.352;-6.356;2024-02-21T10:11:56;13.60;99.90
35531;DHT22;21637;53.352;-6.356;2024-02-21T10:14:32;13.60;99.90
35531;DHT22;21637;53.352;-6.356;2024-02-21T10:16:58;13.50;99.90
35531;DHT22;21637;53.352;-6.356;2024-02-21T10:19:28;13.50;99.90
35531;DHT22;21637;53.352;-6.356;2024-02-21T10:22:03;13.50;99.90
35531;DHT22;21637;53.352;-6.356;2024-02-21T10:24:33;13.40;99.90
35531;DHT22;21637;53.352;-6.356;2024-02-21T10:27:04;13.50;99.90
35531;DHT22;21637;53.352;-6.356;2024-02-21T10:29:33;13.50;99.90
35531;DHT22;21637;53.352;-6.356;2024-02-21T10:32:09;13.50;99.90
35531;DHT22;21637;53.352;-6.356;2024-02-21T10:34:36;13.60;99.90
35531;DHT22;21637;53.352;-6.356;2024-02-21T10:37:07;13.60;99.90
35531;DHT22;21637;53.352;-6.356;2024-02-21T10:39:34;13.60;99.90
35531;DHT22;21637;53.352;-6.356;2024-02-21T10:42:01;13.60;99.90
35531;DHT22;21637;53.352;-6.356;2024-02-21T10:44:33;13.60;99.90
35531;DHT22;21637;53.352;-6.356;2024-02-21T10:46:59;13.60;99.90
35531;DHT22;21637;53.352;-6.356;2024-02-21T10:49:26;13.60;99.90
35531;DHT22;21637;53.352;-6.356;2024-02-21T10:52:09;13.70;99.90
35531;DHT22;21637;53.352;-6.356;2024-02-21T10:55:07;13.70;99.90
35531;DHT22;21637;53.352;-6.356;2024-02-21T10:57:31;13.70;99.90
35531;DHT22;21637;53.352;-6.356;2024-02-21T10:59:59;13.70;99.90
35531;DHT22;21637;53.352;-6.356;2024-02-21T11:02:26;13.70;99.90
35531;DHT22;21637;53.352;-6.356;2024-02-21T11:04:55;13.70;99.90
35531;DHT22;21637;53.352;-6.356;2024-02-21T11:07:22;13.70;99.90
35531;DHT22;21637;53.352;-6.356;2024-02-21T11:09:52;13.60;99.90
35531;DHT22;21637;53.352;-6.356;2024-02-21T11:12:21;13.60;99.90
35531;DHT22;21637;53.352;-6.356;2024-02-21T11:14:47;13.60;99.90
35531;DHT22;21637;53.352;-6.356;2024-02-21T11:17:20;13.60;99.90
35531;DHT22;21637;53.352;-6.356;2024-02-21T11:19:52;13.60;99.90
35531;DHT22;21637;53.352;-6.356;2024-02-21T11:22:19;13.60;99.90
35531;DHT22;21637;53.352;-6.356;2024-02-21T11:24:48;13.50;99.90
35531;DHT22;21637;53.352;-6.356;2024-02-21T11:27:19;13.50;99.90
35531;DHT22;21637;53.352;-6.356;2024-02-21T11:29:47;13.40;99.90
35531;DHT22;21637;53.352;-6.356;2024-02-21T11:32:20;13.40;99.90
35531;DHT22;21637;53.352;-6.356;2024-02-21T11:35:00;13.40;99.90
35531;DHT22;21637;53.352;-6.356;2024-02-21T11:37:28;13.40;99.90
35531;DHT22;21637;53.352;-6.356;2024-02-21T11:39:57;13.40;99.90
35531;DHT22;21637;53.352;-6.356;2024-02-21T11:42:25;13.40;99.90
35531;DHT22;21637;53.352;-6.356;2024-02-21T11:44:52;13.40;99.90
35531;DHT22;21637;53.352;-6.356;2024-02-21T11:47:18;13.30;99.90
35531;DHT22;21637;53.352;-6.356;2024-02-21T11:49:48;13.20;99.90
35531;DHT22;21637;53.352;-6.356;2024-02-21T11:52:16;13.20;99.90
35531;DHT22;21637;53.352;-6.356;2024-02-21T11:54:44;13.20;99.90
35531;DHT22;21637;53.352;-6.356;2024-02-21T11:57:10;13.20;99.90
35531;DHT22;21637;53.352;-6.356;2024-02-21T11:59:40;13.30;99.90
35531;DHT22;21637;53.352;-6.356;2024-02-21T12:02:06;13.40;99.90
35531;DHT22;21637;53.352;-6.356;2024-02-21T12:04:33;13.50;99.90
35531;DHT22;21637;53.352;-6.356;2024-02-21T12:06:59;13.70;99.90
35531;DHT22;21637;53.352;-6.356;2024-02-21T12:09:26;13.80;99.90
35531;DHT22;21637;53.352;-6.356;2024-02-21T12:12:02;13.90;99.90
35531;DHT22;21637;53.352;-6.356;2024-02-21T12:14:33;14.00;99.90
35531;DHT22;21637;53.352;-6.356;2024-02-21T12:17:00;14.00;99.90
35531;DHT22;21637;53.352;-6.356;2024-02-21T12:19:29;14.00;99.90
35531;DHT22;21637;53.352;-6.356;2024-02-21T12:21:54;14.00;99.90
35531;DHT22;21637;53.352;-6.356;2024-02-21T12:24:25;14.00;99.90
35531;DHT22;21637;53.352;-6.356;2024-02-21T12:26:51;14.10;99.90
35531;DHT22;21637;53.352;-6.356;2024-02-21T12:29:21;14.00;99.90
35531;DHT22;21637;53.352;-6.356;2024-02-21T12:31:47;14.10;99.90
35531;DHT22;21637;53.352;-6.356;2024-02-21T12:34:13;14.10;99.90
35531;DHT22;21637;53.352;-6.356;2024-02-21T12:36:43;14.10;99.90
35531;DHT22;21637;53.352;-6.356;2024-02-21T12:39:10;14.10;99.90
35531;DHT22;21637;53.352;-6.356;2024-02-21T12:41:36;14.00;99.90
35531;DHT22;21637;53.352;-6.356;2024-02-21T12:44:05;14.00;99.90
35531;DHT22;21637;53.352;-6.356;2024-02-21T12:46:36;13.90;99.90
35531;DHT22;21637;53.352;-6.356;2024-02-21T12:49:02;13.80;99.90
35531;DHT22;21637;53.352;-6.356;2024-02-21T12:51:29;13.60;99.90
35531;DHT22;21637;53.352;-6.356;2024-02-21T12:53:55;13.60;99.90
35531;DHT22;21637;53.352;-6.356;2024-02-21T12:56:21;13.50;99.90
35531;DHT22;21637;53.352;-6.356;2024-02-21T12:58:47;13.40;99.90
35531;DHT22;21637;53.352;-6.356;2024-02-21T13:01:12;13.40;99.90
35531;DHT22;21637;53.352;-6.356;2024-02-21T13:03:38;13.50;99.90
35531;DHT22;21637;53.352;-6.356;2024-02-21T13:06:05;13.50;99.90
35531;DHT22;21637;53.352;-6.356;2024-02-21T13:08:32;13.60;99.90
35531;DHT22;21637;53.352;-6.356;2024-02-21T13:11:00;13.60;99.90
35531;DHT22;21637;53.352;-6.356;2024-02-21T13:13:25;13.80;99.90
35531;DHT22;21637;53.352;-6.356;2024-02-21T13:15:51;13.90;99.90
35531;DHT22;21637;53.352;-6.356;2024-02-21T13:18:17;14.00;99.90
35531;DHT22;21637;53.352;-6.356;2024-02-21T13:20:42;14.10;99.90
35531;DHT22;21637;53.352;-6.356;2024-02-21T13:23:08;14.10;99.90
35531;DHT22;21637;53.352;-6.356;2024-02-21T13:25:34;14.00;99.90
35531;DHT22;21637;53.352;-6.356;2024-02-21T13:28:00;14.00;99.90
35531;DHT22;21637;53.352;-6.356;2024-02-21T13:30:25;14.10;99.90
35531;DHT22;21637;53.352;-6.356;2024-02-21T13:32:51;14.20;99.90
35531;DHT22;21637;53.352;-6.356;2024-02-21T13:35:17;14.20;99.90
35531;DHT22;21637;53.352;-6.356;2024-02-21T13:37:43;14.10;99.90
35531;DHT22;21637;53.352;-6.356;2024-02-21T13:40:09;14.10;99.90
35531;DHT22;21637;53.352;-6.356;2024-02-21T13:42:36;14.10;99.90
35531;DHT22;21637;53.352;-6.356;2024-02-21T13:45:02;14.20;99.90
35531;DHT22;21637;53.352;-6.356;2024-02-21T13:47:28;14.30;99.90
35531;DHT22;21637;53.352;-6.356;2024-02-21T13:49:55;14.30;99.90
35531;DHT22;21637;53.352;-6.356;2024-02-21T13:52:21;14.10;99.90
35531;DHT22;21637;53.352;-6.356;2024-02-21T13:54:47;13.90;99.90
35531;DHT22;21637;53.352;-6.356;2024-02-21T13:57:13;13.70;99.90
35531;DHT22;21637;53.352;-6.356;2024-02-21T13:59:40;13.60;99.90
35531;DHT22;21637;53.352;-6.356;2024-02-21T14:02:06;13.40;99.90
35531;DHT22;21637;53.352;-6.356;2024-02-21T14:04:35;13.20;99.90
35531;DHT22;21637;53.352;-6.356;2024-02-21T14:07:00;13.20;99.90
35531;DHT22;21637;53.352;-6.356;2024-02-21T14:09:27;13.10;99.90
35531;DHT22;21637;53.352;-6.356;2024-02-21T14:11:54;13.20;99.90
35531;DHT22;21637;53.352;-6.356;2024-02-21T14:14:19;13.10;99.90
35531;DHT22;21637;53.352;-6.356;2024-02-21T14:16:45;13.10;99.90
35531;DHT22;21637;53.352;-6.356;2024-02-21T14:19:13;13.10;99.90
35531;DHT22;21637;53.352;-6.356;2024-02-21T14:21:39;13.10;99.90
35531;DHT22;21637;53.352;-6.356;2024-02-21T14:24:05;13.00;99.90
35531;DHT22;21637;53.352;-6.356;2024-02-21T14:26:31;13.00;99.90
35531;DHT22;21637;53.352;-6.356;2024-02-21T14:28:58;13.00;99.90
35531;DHT22;21637;53.352;-6.356;2024-02-21T14:31:24;13.00;99.90
35531;DHT22;21637;53.352;-6.356;2024-02-21T14:33:53;13.10;99.90
35531;DHT22;21637;53.352;-6.356;2024-02-21T14:36:19;13.20;99.90
35531;DHT22;21637;53.352;-6.356;2024-02-21T14:38:45;13.30;99.90
35531;DHT22;21637;53.352;-6.356;2024-02-21T14:41:11;13.40;99.90
35531;DHT22;21637;53.352;-6.356;2024-02-21T14:43:39;13.50;99.90
35531;DHT22;21637;53.352;-6.356;2024-02-21T14:46:05;13.60;99.90
35531;DHT22;21637;53.352;-6.356;2024-02-21T14:48:32;13.60;99.90
35531;DHT22;21637;53.352;-6.356;2024-02-21T14:50:58;13.70;99.90
35531;DHT22;21637;53.352;-6.356;2024-02-21T14:53:24;13.60;99.90
35531;DHT22;21637;53.352;-6.356;2024-02-21T14:55:50;13.40;99.90
35531;DHT22;21637;53.352;-6.356;2024-02-21T14:58:17;13.30;99.90
35531;DHT22;21637;53.352;-6.356;2024-02-21T15:00:44;13.20;99.90
35531;DHT22;21637;53.352;-6.356;2024-02-21T15:03:10;13.00;99.90
35531;DHT22;21637;53.352;-6.356;2024-02-21T15:05:36;13.00;99.90
35531;DHT22;21637;53.352;-6.356;2024-02-21T15:08:03;12.90;99.90
35531;DHT22;21637;53.352;-6.356;2024-02-21T15:10:29;12.90;99.90
35531;DHT22;21637;53.352;-6.356;2024-02-21T15:12:55;12.80;99.90
35531;DHT22;21637;53.352;-6.356;2024-02-21T15:15:21;12.70;99.90
35531;DHT22;21637;53.352;-6.356;2024-02-21T15:17:47;12.60;99.90
35531;DHT22;21637;53.352;-6.356;2024-02-21T15:20:13;12.60;99.90